This is the latest recevied weather packets stored in our database for station/object DK4DAX-2. If no packets are shown the sender has not sent any weather packets the latest 10 day(s).
| Time | Temp. | Humidity | Pressure | Rain* | Wind** | Luminosity | Snow |
|---|---|---|---|---|---|---|---|
| 1777604402 | 11.67° C | 40% | 1019 hPa | 0 mm | - | - | - |
| 1777603502 | 12.22° C | 38% | 1018.9 hPa | 0 mm | - | - | - |
| 1777602601 | 12.22° C | 38% | 1018.8 hPa | 0 mm | - | - | - |
| 1777601702 | 12.22° C | 39% | 1018.8 hPa | 0 mm | - | - | - |
| 1777600801 | 11.67° C | 40% | 1018.9 hPa | 0 mm | - | - | - |
| 1777599902 | 12.22° C | 38% | 1018.9 hPa | 0 mm | - | - | - |
| 1777599002 | -22.22° C | 86% | 1018.8 hPa | 0 mm | - | - | - |
| 1777598101 | 12.22° C | 37% | 1019 hPa | 0 mm | - | - | - |
| 1777597202 | 12.78° C | 36% | 1018.9 hPa | 0 mm | - | - | - |
| 1777596302 | 12.78° C | 35% | 1018.7 hPa | 0 mm | - | - | - |
| 1777595402 | 12.78° C | 35% | 1018.9 hPa | 0 mm | - | - | - |
| 1777594502 | 12.78° C | 34% | 1018.9 hPa | 0 mm | - | - | - |
| 1777593602 | 13.33° C | 33% | 1019.1 hPa | 0 mm | - | - | - |
| 1777592702 | 13.33° C | 33% | 1018.9 hPa | 0 mm | - | - | - |
| 1777591802 | 13.33° C | 32% | 1019 hPa | 0 mm | - | - | - |
| 1777590901 | 13.33° C | 32% | 1019.2 hPa | 0 mm | - | - | - |
| 1777590002 | 13.33° C | 30% | 1018.9 hPa | 0 mm | - | - | - |
| 1777589101 | 13.89° C | 28% | 1019 hPa | 0 mm | - | - | - |
| 1777588202 | 14.44° C | 25% | 1019 hPa | 0 mm | - | - | - |
| 1777587302 | 14.44° C | 24% | 1019 hPa | 0 mm | - | - | - |
| 1777586403 | 14.44° C | 23% | 1019 hPa | 0 mm | - | - | - |
| 1777585501 | 15° C | 23% | 1019.1 hPa | 0 mm | - | - | - |
| 1777584602 | 15° C | 21% | 1019 hPa | 0 mm | - | - | - |
| 1777583702 | 15.56° C | 20% | 1018.6 hPa | 0 mm | - | - | - |
| 1777582802 | 15.56° C | 20% | 1018.8 hPa | 0 mm | - | - | - |
* Rain latest hour (hover to see other rain measurements)
** Current wind speed in m/s (hover to see current wind gust speed)